sensor_id;sensor_type;location;lat;lon;timestamp;P1;durP1;ratioP1;P2;durP2;ratioP2
57085;SDS011;42964;42.910;23.792;2024-01-25T00:04:34;70.32;;;41.30;;
57085;SDS011;42964;42.910;23.792;2024-01-25T00:09:33;83.47;;;48.70;;
57085;SDS011;42964;42.910;23.792;2024-01-25T00:14:31;81.85;;;50.40;;
57085;SDS011;42964;42.910;23.792;2024-01-25T00:19:30;66.72;;;40.85;;
57085;SDS011;42964;42.910;23.792;2024-01-25T00:24:29;76.70;;;43.38;;
57085;SDS011;42964;42.910;23.792;2024-01-25T00:29:30;79.88;;;45.05;;
57085;SDS011;42964;42.910;23.792;2024-01-25T00:34:29;74.38;;;45.50;;
57085;SDS011;42964;42.910;23.792;2024-01-25T00:39:28;75.32;;;45.45;;
57085;SDS011;42964;42.910;23.792;2024-01-25T00:49:27;62.72;;;35.88;;
57085;SDS011;42964;42.910;23.792;2024-01-25T00:54:26;63.10;;;37.13;;
57085;SDS011;42964;42.910;23.792;2024-01-25T00:59:25;56.03;;;34.38;;
57085;SDS011;42964;42.910;23.792;2024-01-25T01:09:23;47.08;;;28.88;;
57085;SDS011;42964;42.910;23.792;2024-01-25T01:14:24;64.38;;;40.17;;
57085;SDS011;42964;42.910;23.792;2024-01-25T01:19:22;48.53;;;30.80;;
57085;SDS011;42964;42.910;23.792;2024-01-25T01:24:21;48.90;;;29.73;;
57085;SDS011;42964;42.910;23.792;2024-01-25T01:29:20;32.80;;;21.95;;
57085;SDS011;42964;42.910;23.792;2024-01-25T01:34:19;38.60;;;25.70;;
57085;SDS011;42964;42.910;23.792;2024-01-25T01:39:18;33.20;;;22.30;;
57085;SDS011;42964;42.910;23.792;2024-01-25T01:44:17;32.38;;;20.55;;
57085;SDS011;42964;42.910;23.792;2024-01-25T01:49:16;41.85;;;25.52;;
57085;SDS011;42964;42.910;23.792;2024-01-25T01:59:14;46.22;;;28.48;;
57085;SDS011;42964;42.910;23.792;2024-01-25T02:04:14;30.08;;;19.10;;
57085;SDS011;42964;42.910;23.792;2024-01-25T02:09:13;25.33;;;15.02;;
57085;SDS011;42964;42.910;23.792;2024-01-25T02:14:12;50.50;;;28.75;;
57085;SDS011;42964;42.910;23.792;2024-01-25T02:19:11;47.28;;;28.02;;
57085;SDS011;42964;42.910;23.792;2024-01-25T02:24:10;38.10;;;23.95;;
57085;SDS011;42964;42.910;23.792;2024-01-25T02:29:09;38.95;;;22.33;;
57085;SDS011;42964;42.910;23.792;2024-01-25T02:34:08;28.60;;;15.73;;
57085;SDS011;42964;42.910;23.792;2024-01-25T02:39:07;29.20;;;17.33;;
57085;SDS011;42964;42.910;23.792;2024-01-25T02:44:06;33.47;;;20.63;;
57085;SDS011;42964;42.910;23.792;2024-01-25T02:49:05;40.42;;;28.92;;
57085;SDS011;42964;42.910;23.792;2024-01-25T02:54:04;43.97;;;28.27;;
57085;SDS011;42964;42.910;23.792;2024-01-25T02:59:03;39.97;;;25.92;;
57085;SDS011;42964;42.910;23.792;2024-01-25T03:04:02;33.47;;;19.02;;
57085;SDS011;42964;42.910;23.792;2024-01-25T03:09:01;51.55;;;30.13;;
57085;SDS011;42964;42.910;23.792;2024-01-25T03:14:03;45.97;;;26.60;;
57085;SDS011;42964;42.910;23.792;2024-01-25T03:19:02;28.85;;;16.48;;
57085;SDS011;42964;42.910;23.792;2024-01-25T03:24:01;29.60;;;19.52;;
57085;SDS011;42964;42.910;23.792;2024-01-25T03:28:59;22.70;;;13.77;;
57085;SDS011;42964;42.910;23.792;2024-01-25T03:33:58;20.50;;;11.15;;
57085;SDS011;42964;42.910;23.792;2024-01-25T03:38:57;13.50;;;8.25;;
57085;SDS011;42964;42.910;23.792;2024-01-25T03:43:56;14.50;;;7.97;;
57085;SDS011;42964;42.910;23.792;2024-01-25T03:48:55;17.92;;;12.23;;
57085;SDS011;42964;42.910;23.792;2024-01-25T03:53:54;23.77;;;13.45;;
57085;SDS011;42964;42.910;23.792;2024-01-25T03:58:53;24.85;;;15.23;;
57085;SDS011;42964;42.910;23.792;2024-01-25T04:03:52;29.33;;;17.58;;
57085;SDS011;42964;42.910;23.792;2024-01-25T04:08:51;18.73;;;11.23;;
57085;SDS011;42964;42.910;23.792;2024-01-25T04:13:50;14.68;;;10.35;;
57085;SDS011;42964;42.910;23.792;2024-01-25T04:18:49;20.02;;;12.85;;
57085;SDS011;42964;42.910;23.792;2024-01-25T04:23:48;21.00;;;12.13;;
57085;SDS011;42964;42.910;23.792;2024-01-25T04:28:47;28.00;;;16.70;;
57085;SDS011;42964;42.910;23.792;2024-01-25T04:33:46;21.05;;;13.68;;
57085;SDS011;42964;42.910;23.792;2024-01-25T04:38:45;18.10;;;11.73;;
57085;SDS011;42964;42.910;23.792;2024-01-25T04:43:44;17.98;;;11.50;;
57085;SDS011;42964;42.910;23.792;2024-01-25T04:48:44;18.98;;;13.13;;
57085;SDS011;42964;42.910;23.792;2024-01-25T04:53:44;20.92;;;14.15;;
57085;SDS011;42964;42.910;23.792;2024-01-25T04:58:43;23.17;;;14.38;;
57085;SDS011;42964;42.910;23.792;2024-01-25T05:03:42;24.08;;;15.70;;
57085;SDS011;42964;42.910;23.792;2024-01-25T05:08:42;42.90;;;29.02;;
57085;SDS011;42964;42.910;23.792;2024-01-25T05:13:41;40.13;;;26.67;;
57085;SDS011;42964;42.910;23.792;2024-01-25T05:18:40;29.50;;;19.42;;
57085;SDS011;42964;42.910;23.792;2024-01-25T05:23:39;24.42;;;16.52;;
57085;SDS011;42964;42.910;23.792;2024-01-25T05:28:38;15.93;;;10.98;;
57085;SDS011;42964;42.910;23.792;2024-01-25T05:33:38;18.40;;;11.27;;
57085;SDS011;42964;42.910;23.792;2024-01-25T05:38:40;26.90;;;14.82;;
57085;SDS011;42964;42.910;23.792;2024-01-25T05:43:39;23.08;;;14.02;;
57085;SDS011;42964;42.910;23.792;2024-01-25T05:48:38;10.70;;;7.60;;
57085;SDS011;42964;42.910;23.792;2024-01-25T05:53:38;11.95;;;8.05;;
57085;SDS011;42964;42.910;23.792;2024-01-25T05:58:37;50.78;;;28.15;;
57085;SDS011;42964;42.910;23.792;2024-01-25T06:03:36;27.98;;;18.50;;
57085;SDS011;42964;42.910;23.792;2024-01-25T06:08:35;20.17;;;13.60;;
57085;SDS011;42964;42.910;23.792;2024-01-25T06:13:34;26.88;;;17.50;;
57085;SDS011;42964;42.910;23.792;2024-01-25T06:18:33;33.63;;;23.42;;
57085;SDS011;42964;42.910;23.792;2024-01-25T06:23:32;55.30;;;36.50;;
57085;SDS011;42964;42.910;23.792;2024-01-25T06:28:31;47.80;;;29.80;;
57085;SDS011;42964;42.910;23.792;2024-01-25T06:33:30;46.75;;;29.45;;
57085;SDS011;42964;42.910;23.792;2024-01-25T06:38:28;54.35;;;31.95;;
57085;SDS011;42964;42.910;23.792;2024-01-25T06:43:27;47.88;;;28.27;;
57085;SDS011;42964;42.910;23.792;2024-01-25T06:48:26;44.80;;;30.95;;
57085;SDS011;42964;42.910;23.792;2024-01-25T06:53:25;42.75;;;27.33;;
57085;SDS011;42964;42.910;23.792;2024-01-25T06:58:25;48.22;;;32.00;;
57085;SDS011;42964;42.910;23.792;2024-01-25T07:03:24;51.72;;;34.35;;
57085;SDS011;42964;42.910;23.792;2024-01-25T07:08:23;51.33;;;33.67;;
57085;SDS011;42964;42.910;23.792;2024-01-25T07:13:22;53.22;;;31.60;;
57085;SDS011;42964;42.910;23.792;2024-01-25T07:18:21;65.68;;;40.50;;
57085;SDS011;42964;42.910;23.792;2024-01-25T07:23:23;58.78;;;33.60;;
57085;SDS011;42964;42.910;23.792;2024-01-25T07:28:21;42.28;;;26.70;;
57085;SDS011;42964;42.910;23.792;2024-01-25T07:33:20;43.08;;;28.65;;
57085;SDS011;42964;42.910;23.792;2024-01-25T07:38:19;47.45;;;30.08;;
57085;SDS011;42964;42.910;23.792;2024-01-25T07:43:18;39.75;;;24.77;;
57085;SDS011;42964;42.910;23.792;2024-01-25T07:48:17;37.28;;;25.67;;
57085;SDS011;42964;42.910;23.792;2024-01-25T07:53:16;43.08;;;26.33;;
57085;SDS011;42964;42.910;23.792;2024-01-25T07:58:16;30.70;;;19.05;;
57085;SDS011;42964;42.910;23.792;2024-01-25T08:03:15;105.80;;;68.93;;
57085;SDS011;42964;42.910;23.792;2024-01-25T08:08:14;69.70;;;46.90;;
57085;SDS011;42964;42.910;23.792;2024-01-25T08:13:13;67.75;;;46.38;;
57085;SDS011;42964;42.910;23.792;2024-01-25T08:18:12;62.22;;;43.03;;
57085;SDS011;42964;42.910;23.792;2024-01-25T08:28:12;60.53;;;39.35;;
57085;SDS011;42964;42.910;23.792;2024-01-25T08:33:10;43.00;;;31.95;;
57085;SDS011;42964;42.910;23.792;2024-01-25T08:38:10;43.78;;;30.38;;
57085;SDS011;42964;42.910;23.792;2024-01-25T08:43:08;41.60;;;29.55;;
57085;SDS011;42964;42.910;23.792;2024-01-25T08:48:07;43.13;;;29.10;;
57085;SDS011;42964;42.910;23.792;2024-01-25T08:53:07;45.90;;;33.20;;
57085;SDS011;42964;42.910;23.792;2024-01-25T08:58:06;45.63;;;31.65;;
57085;SDS011;42964;42.910;23.792;2024-01-25T09:03:05;35.17;;;25.23;;
57085;SDS011;42964;42.910;23.792;2024-01-25T09:08:04;32.83;;;22.35;;
57085;SDS011;42964;42.910;23.792;2024-01-25T09:13:04;27.52;;;20.23;;
57085;SDS011;42964;42.910;23.792;2024-01-25T09:18:03;31.55;;;23.27;;
57085;SDS011;42964;42.910;23.792;2024-01-25T09:23:02;39.20;;;27.77;;
57085;SDS011;42964;42.910;23.792;2024-01-25T09:28:01;39.55;;;28.55;;
57085;SDS011;42964;42.910;23.792;2024-01-25T09:33:00;38.88;;;28.20;;
57085;SDS011;42964;42.910;23.792;2024-01-25T09:37:59;35.53;;;23.92;;
57085;SDS011;42964;42.910;23.792;2024-01-25T09:42:58;33.88;;;23.52;;
57085;SDS011;42964;42.910;23.792;2024-01-25T09:47:56;37.88;;;26.67;;
57085;SDS011;42964;42.910;23.792;2024-01-25T09:52:56;35.15;;;23.90;;
57085;SDS011;42964;42.910;23.792;2024-01-25T09:57:56;29.10;;;19.45;;
57085;SDS011;42964;42.910;23.792;2024-01-25T10:02:55;25.58;;;15.00;;
57085;SDS011;42964;42.910;23.792;2024-01-25T10:07:54;21.80;;;13.02;;
57085;SDS011;42964;42.910;23.792;2024-01-25T10:12:59;16.92;;;10.30;;
57085;SDS011;42964;42.910;23.792;2024-01-25T10:17:58;10.35;;;8.13;;
57085;SDS011;42964;42.910;23.792;2024-01-25T10:22:57;11.90;;;7.45;;
57085;SDS011;42964;42.910;23.792;2024-01-25T10:27:57;11.20;;;8.32;;
57085;SDS011;42964;42.910;23.792;2024-01-25T10:32:56;11.02;;;7.50;;
57085;SDS011;42964;42.910;23.792;2024-01-25T10:37:57;11.23;;;8.05;;
57085;SDS011;42964;42.910;23.792;2024-01-25T10:42:56;11.32;;;8.25;;
57085;SDS011;42964;42.910;23.792;2024-01-25T10:47:55;10.57;;;6.70;;
57085;SDS011;42964;42.910;23.792;2024-01-25T10:52:55;17.92;;;11.25;;
57085;SDS011;42964;42.910;23.792;2024-01-25T10:57:54;10.88;;;7.47;;
57085;SDS011;42964;42.910;23.792;2024-01-25T11:02:53;21.63;;;16.67;;
57085;SDS011;42964;42.910;23.792;2024-01-25T11:07:53;17.35;;;10.52;;
57085;SDS011;42964;42.910;23.792;2024-01-25T11:12:58;48.75;;;35.95;;
57085;SDS011;42964;42.910;23.792;2024-01-25T11:17:58;20.05;;;13.20;;
57085;SDS011;42964;42.910;23.792;2024-01-25T11:23:02;15.90;;;12.00;;
57085;SDS011;42964;42.910;23.792;2024-01-25T11:28:04;9.07;;;6.18;;
57085;SDS011;42964;42.910;23.792;2024-01-25T11:33:04;11.07;;;6.25;;
57085;SDS011;42964;42.910;23.792;2024-01-25T11:38:04;10.88;;;6.70;;
57085;SDS011;42964;42.910;23.792;2024-01-25T11:43:04;14.02;;;8.95;;
57085;SDS011;42964;42.910;23.792;2024-01-25T11:48:09;12.43;;;6.90;;
57085;SDS011;42964;42.910;23.792;2024-01-25T11:53:08;8.90;;;5.50;;
57085;SDS011;42964;42.910;23.792;2024-01-25T11:58:08;11.00;;;5.85;;
57085;SDS011;42964;42.910;23.792;2024-01-25T12:03:07;10.32;;;6.50;;
57085;SDS011;42964;42.910;23.792;2024-01-25T12:08:13;7.50;;;5.70;;
57085;SDS011;42964;42.910;23.792;2024-01-25T12:13:12;8.75;;;6.28;;
57085;SDS011;42964;42.910;23.792;2024-01-25T12:18:11;9.73;;;6.65;;
57085;SDS011;42964;42.910;23.792;2024-01-25T12:23:10;11.02;;;6.30;;
57085;SDS011;42964;42.910;23.792;2024-01-25T12:28:09;13.85;;;6.00;;
57085;SDS011;42964;42.910;23.792;2024-01-25T12:38:07;11.75;;;7.07;;
57085;SDS011;42964;42.910;23.792;2024-01-25T12:43:06;6.65;;;5.63;;
57085;SDS011;42964;42.910;23.792;2024-01-25T12:48:05;9.10;;;6.60;;
57085;SDS011;42964;42.910;23.792;2024-01-25T12:53:07;10.00;;;6.30;;
57085;SDS011;42964;42.910;23.792;2024-01-25T12:58:09;12.73;;;7.40;;
57085;SDS011;42964;42.910;23.792;2024-01-25T13:03:08;11.43;;;7.10;;
57085;SDS011;42964;42.910;23.792;2024-01-25T13:08:07;10.65;;;7.10;;
57085;SDS011;42964;42.910;23.792;2024-01-25T13:13:06;14.43;;;7.07;;
57085;SDS011;42964;42.910;23.792;2024-01-25T13:18:05;12.25;;;6.75;;
57085;SDS011;42964;42.910;23.792;2024-01-25T13:23:04;7.63;;;6.15;;
57085;SDS011;42964;42.910;23.792;2024-01-25T13:28:03;10.50;;;6.30;;
57085;SDS011;42964;42.910;23.792;2024-01-25T13:38:01;11.13;;;5.72;;
57085;SDS011;42964;42.910;23.792;2024-01-25T13:43:00;7.93;;;5.05;;
57085;SDS011;42964;42.910;23.792;2024-01-25T13:47:59;15.02;;;7.65;;
57085;SDS011;42964;42.910;23.792;2024-01-25T13:52:58;17.80;;;8.75;;
57085;SDS011;42964;42.910;23.792;2024-01-25T13:57:57;13.25;;;8.20;;
57085;SDS011;42964;42.910;23.792;2024-01-25T14:02:56;11.68;;;7.63;;
57085;SDS011;42964;42.910;23.792;2024-01-25T14:07:55;11.95;;;6.45;;
57085;SDS011;42964;42.910;23.792;2024-01-25T14:12:54;8.45;;;5.72;;
57085;SDS011;42964;42.910;23.792;2024-01-25T14:17:53;13.07;;;6.47;;
57085;SDS011;42964;42.910;23.792;2024-01-25T14:22:52;18.65;;;9.25;;
57085;SDS011;42964;42.910;23.792;2024-01-25T14:27:51;15.73;;;9.02;;
57085;SDS011;42964;42.910;23.792;2024-01-25T14:32:50;23.75;;;11.85;;
57085;SDS011;42964;42.910;23.792;2024-01-25T14:37:48;13.63;;;8.90;;
57085;SDS011;42964;42.910;23.792;2024-01-25T14:42:47;26.38;;;13.15;;
57085;SDS011;42964;42.910;23.792;2024-01-25T14:52:45;22.35;;;12.07;;
57085;SDS011;42964;42.910;23.792;2024-01-25T14:57:44;20.13;;;13.65;;
57085;SDS011;42964;42.910;23.792;2024-01-25T15:02:43;26.50;;;15.15;;
57085;SDS011;42964;42.910;23.792;2024-01-25T15:07:42;19.35;;;13.38;;
57085;SDS011;42964;42.910;23.792;2024-01-25T15:12:41;21.13;;;12.73;;
57085;SDS011;42964;42.910;23.792;2024-01-25T15:17:40;33.00;;;17.20;;
57085;SDS011;42964;42.910;23.792;2024-01-25T15:22:39;28.95;;;16.58;;
57085;SDS011;42964;42.910;23.792;2024-01-25T15:27:38;21.38;;;12.10;;
57085;SDS011;42964;42.910;23.792;2024-01-25T15:32:37;16.55;;;10.55;;
57085;SDS011;42964;42.910;23.792;2024-01-25T15:37:37;11.85;;;8.68;;
57085;SDS011;42964;42.910;23.792;2024-01-25T15:42:36;27.77;;;17.63;;
57085;SDS011;42964;42.910;23.792;2024-01-25T15:47:36;28.05;;;18.17;;
57085;SDS011;42964;42.910;23.792;2024-01-25T15:52:36;20.88;;;13.85;;
57085;SDS011;42964;42.910;23.792;2024-01-25T15:57:34;46.00;;;25.67;;
57085;SDS011;42964;42.910;23.792;2024-01-25T16:02:33;21.48;;;14.82;;
57085;SDS011;42964;42.910;23.792;2024-01-25T16:07:32;27.00;;;17.88;;
57085;SDS011;42964;42.910;23.792;2024-01-25T16:12:31;38.50;;;25.60;;
57085;SDS011;42964;42.910;23.792;2024-01-25T16:17:30;36.20;;;23.58;;
57085;SDS011;42964;42.910;23.792;2024-01-25T16:22:29;50.10;;;32.85;;
57085;SDS011;42964;42.910;23.792;2024-01-25T16:27:28;54.67;;;35.80;;
57085;SDS011;42964;42.910;23.792;2024-01-25T16:32:27;52.05;;;31.42;;
57085;SDS011;42964;42.910;23.792;2024-01-25T16:37:26;44.58;;;29.10;;
57085;SDS011;42964;42.910;23.792;2024-01-25T16:42:25;39.83;;;27.25;;
57085;SDS011;42964;42.910;23.792;2024-01-25T16:47:24;46.03;;;29.80;;
57085;SDS011;42964;42.910;23.792;2024-01-25T16:52:23;40.33;;;27.90;;
57085;SDS011;42964;42.910;23.792;2024-01-25T16:57:22;55.33;;;31.35;;
57085;SDS011;42964;42.910;23.792;2024-01-25T17:02:21;53.67;;;32.28;;
57085;SDS011;42964;42.910;23.792;2024-01-25T17:07:20;58.85;;;34.33;;
57085;SDS011;42964;42.910;23.792;2024-01-25T17:12:19;29.60;;;16.88;;
57085;SDS011;42964;42.910;23.792;2024-01-25T17:17:18;31.60;;;19.83;;
57085;SDS011;42964;42.910;23.792;2024-01-25T17:22:17;27.73;;;17.25;;
57085;SDS011;42964;42.910;23.792;2024-01-25T17:27:16;17.60;;;10.55;;
57085;SDS011;42964;42.910;23.792;2024-01-25T17:32:16;12.13;;;8.82;;
57085;SDS011;42964;42.910;23.792;2024-01-25T17:37:14;10.88;;;6.85;;
57085;SDS011;42964;42.910;23.792;2024-01-25T17:42:13;13.00;;;7.63;;
57085;SDS011;42964;42.910;23.792;2024-01-25T17:47:12;11.60;;;7.55;;
57085;SDS011;42964;42.910;23.792;2024-01-25T17:52:11;20.60;;;10.02;;
57085;SDS011;42964;42.910;23.792;2024-01-25T17:57:10;19.60;;;10.38;;
57085;SDS011;42964;42.910;23.792;2024-01-25T18:02:09;13.20;;;7.93;;
57085;SDS011;42964;42.910;23.792;2024-01-25T18:07:08;18.23;;;9.25;;
57085;SDS011;42964;42.910;23.792;2024-01-25T18:12:07;22.48;;;10.50;;
57085;SDS011;42964;42.910;23.792;2024-01-25T18:17:06;24.23;;;12.13;;
57085;SDS011;42964;42.910;23.792;2024-01-25T18:22:05;26.27;;;12.15;;
57085;SDS011;42964;42.910;23.792;2024-01-25T18:27:04;18.75;;;9.38;;
57085;SDS011;42964;42.910;23.792;2024-01-25T18:32:03;45.95;;;21.48;;
57085;SDS011;42964;42.910;23.792;2024-01-25T18:37:03;33.40;;;16.33;;
57085;SDS011;42964;42.910;23.792;2024-01-25T18:42:02;26.13;;;13.52;;
57085;SDS011;42964;42.910;23.792;2024-01-25T18:47:01;41.00;;;22.27;;
57085;SDS011;42964;42.910;23.792;2024-01-25T18:52:01;53.65;;;26.45;;
57085;SDS011;42964;42.910;23.792;2024-01-25T18:57:02;18.83;;;9.60;;
57085;SDS011;42964;42.910;23.792;2024-01-25T19:07:01;14.17;;;9.30;;
57085;SDS011;42964;42.910;23.792;2024-01-25T19:12:00;24.02;;;15.13;;
57085;SDS011;42964;42.910;23.792;2024-01-25T19:16:59;15.95;;;9.13;;
57085;SDS011;42964;42.910;23.792;2024-01-25T19:21:59;14.55;;;8.63;;
57085;SDS011;42964;42.910;23.792;2024-01-25T19:26:58;15.82;;;8.35;;
57085;SDS011;42964;42.910;23.792;2024-01-25T19:31:57;11.35;;;6.93;;
57085;SDS011;42964;42.910;23.792;2024-01-25T19:36:56;14.88;;;7.53;;
57085;SDS011;42964;42.910;23.792;2024-01-25T19:41:55;13.52;;;8.30;;
57085;SDS011;42964;42.910;23.792;2024-01-25T19:46:54;14.90;;;9.18;;
57085;SDS011;42964;42.910;23.792;2024-01-25T19:51:53;18.60;;;10.07;;
57085;SDS011;42964;42.910;23.792;2024-01-25T19:56:52;17.77;;;10.57;;
57085;SDS011;42964;42.910;23.792;2024-01-25T20:01:51;13.32;;;8.57;;
57085;SDS011;42964;42.910;23.792;2024-01-25T20:11:49;16.50;;;10.38;;
57085;SDS011;42964;42.910;23.792;2024-01-25T20:16:48;19.90;;;11.48;;
57085;SDS011;42964;42.910;23.792;2024-01-25T20:21:47;15.63;;;8.18;;
57085;SDS011;42964;42.910;23.792;2024-01-25T20:26:47;13.90;;;7.07;;
57085;SDS011;42964;42.910;23.792;2024-01-25T20:31:46;13.85;;;7.05;;
57085;SDS011;42964;42.910;23.792;2024-01-25T20:36:45;12.90;;;7.22;;
57085;SDS011;42964;42.910;23.792;2024-01-25T20:41:44;11.52;;;6.63;;
57085;SDS011;42964;42.910;23.792;2024-01-25T20:46:43;17.35;;;7.57;;
57085;SDS011;42964;42.910;23.792;2024-01-25T20:51:41;6.07;;;5.20;;
57085;SDS011;42964;42.910;23.792;2024-01-25T20:56:40;12.75;;;6.25;;
57085;SDS011;42964;42.910;23.792;2024-01-25T21:01:39;9.52;;;6.00;;
57085;SDS011;42964;42.910;23.792;2024-01-25T21:06:39;11.45;;;7.50;;
57085;SDS011;42964;42.910;23.792;2024-01-25T21:11:38;17.48;;;9.40;;
57085;SDS011;42964;42.910;23.792;2024-01-25T21:16:37;15.38;;;6.70;;
57085;SDS011;42964;42.910;23.792;2024-01-25T21:21:37;22.08;;;11.30;;
57085;SDS011;42964;42.910;23.792;2024-01-25T21:26:36;10.90;;;6.47;;
57085;SDS011;42964;42.910;23.792;2024-01-25T21:31:35;16.42;;;7.93;;
57085;SDS011;42964;42.910;23.792;2024-01-25T21:36:34;17.10;;;7.78;;
57085;SDS011;42964;42.910;23.792;2024-01-25T21:41:33;14.05;;;8.30;;
57085;SDS011;42964;42.910;23.792;2024-01-25T21:46:31;15.10;;;8.10;;
57085;SDS011;42964;42.910;23.792;2024-01-25T21:51:30;14.30;;;6.80;;
57085;SDS011;42964;42.910;23.792;2024-01-25T21:56:30;9.18;;;6.22;;
57085;SDS011;42964;42.910;23.792;2024-01-25T22:01:29;11.93;;;7.57;;
57085;SDS011;42964;42.910;23.792;2024-01-25T22:06:27;12.05;;;6.82;;
57085;SDS011;42964;42.910;23.792;2024-01-25T22:11:26;51.45;;;27.30;;
57085;SDS011;42964;42.910;23.792;2024-01-25T22:16:25;30.48;;;16.38;;
57085;SDS011;42964;42.910;23.792;2024-01-25T22:21:24;18.05;;;8.55;;
57085;SDS011;42964;42.910;23.792;2024-01-25T22:26:23;16.40;;;8.93;;
57085;SDS011;42964;42.910;23.792;2024-01-25T22:31:22;18.02;;;10.80;;
57085;SDS011;42964;42.910;23.792;2024-01-25T22:36:21;27.50;;;12.48;;
57085;SDS011;42964;42.910;23.792;2024-01-25T22:41:20;19.75;;;12.15;;
57085;SDS011;42964;42.910;23.792;2024-01-25T22:46:19;19.73;;;10.15;;
57085;SDS011;42964;42.910;23.792;2024-01-25T22:51:18;13.55;;;7.90;;
57085;SDS011;42964;42.910;23.792;2024-01-25T22:56:17;14.88;;;8.98;;
57085;SDS011;42964;42.910;23.792;2024-01-25T23:01:16;16.55;;;10.02;;
57085;SDS011;42964;42.910;23.792;2024-01-25T23:06:15;15.38;;;8.77;;
57085;SDS011;42964;42.910;23.792;2024-01-25T23:11:14;18.95;;;9.68;;
57085;SDS011;42964;42.910;23.792;2024-01-25T23:16:13;15.13;;;9.43;;
57085;SDS011;42964;42.910;23.792;2024-01-25T23:21:12;16.35;;;8.80;;
57085;SDS011;42964;42.910;23.792;2024-01-25T23:26:11;21.55;;;9.27;;
57085;SDS011;42964;42.910;23.792;2024-01-25T23:31:13;21.90;;;14.60;;
57085;SDS011;42964;42.910;23.792;2024-01-25T23:36:13;16.17;;;11.63;;
57085;SDS011;42964;42.910;23.792;2024-01-25T23:41:12;14.30;;;7.60;;
57085;SDS011;42964;42.910;23.792;2024-01-25T23:46:11;16.80;;;10.68;;
57085;SDS011;42964;42.910;23.792;2024-01-25T23:51:10;9.73;;;6.28;;
57085;SDS011;42964;42.910;23.792;2024-01-25T23:56:09;11.07;;;7.00;;
